Aviation Digital Data Service (ADDS)

Output produced by METARs form (1036 UTC 19 January 2019)
found at http://www.aviationweather.gov/metar/data/
 
KDWU 190956Z AUTO 00000KT 10SM OVC044 03/01 A2999 RMK AO2 SLP159 T00280006
KBRY 191035Z AUTO 09004KT 4SM SCT007 OVC018 03/03 A2979 RMK AO1
KBWG 190953Z AUTO 16013G23KT 7SM -RA FEW012 FEW035 OVC080 11/08 A2975 RMK AO2 PRESFR SLP074 P0006 T01060083
KBWG 191001Z 1910/2006 16010G20KT P6SM -RA SCT012 OVC060 
     TEMPO 1910/1913 5SM -RA BR BKN010 
     FM191300 17013G20KT 2SM SHRA OVC012 
     FM192000 24013KT 2SM SHRA OVC008 
     FM192200 31011KT 5SM -SHRA BKN009 
     FM200200 33020G30KT 3SM -SN OVC015
       
KAAS 191015Z AUTO 11008KT 10SM SCT021 BKN043 BKN050 06/06 A2985 RMK AO1
KDVK 191015Z AUTO 12004KT 10SM CLR 03/03 A2986 RMK AO2
KEKX 191035Z AUTO 08005KT 5SM RA OVC010 05/05 A2978 RMK AO2 LTG DSNT SW P0007 T00460046
KFGX 191015Z AUTO 09007KT 10SM OVC040 02/02 A2994 RMK AO2 T00200015
KFFT 191008Z AUTO 07009KT 10SM BKN029 OVC043 04/02 A2986 RMK AO2 T00440022
KGLW 191015Z AUTO 16009KT 7SM RA OVC075 08/07 A2977 RMK AO2 P0002 T00820071
KM21 191015Z AUTO 15006KT 10SM -RA OVC011 09/09 A2970 RMK AO2 T00900090
KI35 191015Z AUTO 00000KT 10SM CLR 08/04 A2991 RMK AO2 T00760038
KEHR 190956Z AUTO 07013KT 4SM -RA BR OVC003 06/06 A2969 RMK AO2 PRESFR SLP065 P0026 T00560056
KJKL 190953Z AUTO 05003KT 10SM CLR 04/03 A2991 RMK AO2 SLP132 T00390028
KJKL 190520Z 1906/2006 VRB06KT P6SM SCT025 OVC035 
     FM191200 VRB06KT 6SM -RA BR OVC045 
     FM191500 13005KT 5SM RA BR OVC025 WS020/19040KT 
     FM191700 16006KT 2SM RA BR OVC015 WS020/18040KT 
     FM192200 VRB06KT 2SM RA BR OVC008 
     FM200300 29007KT 3SM RA OVC008
       
KKY8 191015Z AUTO 05007KT 2 1/2SM BR SCT007 OVC016 05/05 A2975 RMK A01
KLEX 190954Z 08007KT 10SM OVC040 04/02 A2989 RMK AO2 SLP124 T00440022
KLEX 190527Z 1906/2006 10009KT P6SM OVC035 
     FM191100 10014G20KT 3SM -SHRA OVC012 
     FM191500 11015G21KT 2SM SHRA OVC007 
     FM191900 03013KT 2SM SHRA OVC006 
     FM200100 36016G26KT 2SM SHRA OVC009 
     FM200300 33022G32KT 2SM -SN OVC010
       
KLOZ 190953Z AUTO 04003KT 10SM CLR 05/04 A2989 RMK AO2 SLP124 T00500044
KLOZ 190520Z 1906/2006 VRB03KT P6SM OVC035 
     FM191300 13005KT 6SM RA OVC035 
     FM191500 16010KT 5SM RA OVC035 WS020/18045KT 
     FM191700 16010KT 3SM RA OVC015 WS020/19045KT 
     FM192100 18008KT 2SM RA OVC008
       
KLOU 190953Z AUTO 08010KT 10SM -RA OVC019 06/02 A2984 RMK AO2 RAB52 SLP105 P0000 T00560017
KSDF 191032Z 10004KT 4SM RA BR OVC014 05/03 A2982 RMK AO2 P0003 T00500028
KSDF 191002Z 1910/2012 09007KT P6SM -RA BKN018 OVC040 
     FM191200 08011KT 3SM SHRA OVC009 
     FM191500 08011KT 2SM SHRA OVC008 
     FM191700 03010KT 2SM SHRA OVC007 
     TEMPO 2000/2001 2SM FZRAPL 
     FM200100 35022G32KT 1SM -SN OVC015 
     FM200700 34015G27KT P6SM BKN025
       
K2I0 191015Z AUTO 11007KT 4SM -RA OVC010 08/08 A2968 RMK AO2 P0002 T00760076
K5M9 191015Z AUTO 14010G17KT 7SM RA OVC006 09/09 A2963 RMK AO2 T00900090
KM25 191035Z AUTO 16011G16KT 10SM -RA OVC008 12/11 A2963 RMK AO2 P0001
K1A6 191015Z AUTO 00000KT 10SM CLR 04/04 A2993 RMK AO2 T00400040
KEKQ 191008Z AUTO 08006KT 10SM BKN021 BKN110 09/07 A2987 RMK AO2 PNO $
KIOB 191015Z AUTO 09006KT 10SM CLR 03/02 A2991 RMK AO2
KCEY 191015Z AUTO 15009G19KT 10SM FEW004 BKN010 OVC022 11/11 A2964 RMK AO1
KOWB 191026Z AUTO 09010KT 7SM -RA BKN005 OVC012 07/06 A2969 RMK AO2 PRESFR P0006
KOWB 190704Z 1907/2006 11013KT 6SM -RA BR BKN019 
     TEMPO 1907/1909 5SM -RA BR BKN012 
     FM190900 08010KT 4SM -SHRA BR VCTS OVC007CB 
     FM191500 03011KT 3SM -RA BR OVC004 
     FM191800 36015G25KT 4SM -RA BR OVC007 
     FM200000 35020G32KT 3SM -SN BR OVC007 
     FM200500 34020G30KT P6SM OVC010
       
KPAH 191011Z AUTO 17008KT 10SM -RA OVC009 12/10 A2960 RMK AO2 CIG 007V012 P0000 T01170100
KPAH 190707Z 1907/2006 14011G18KT P6SM -RA VCTS BKN010CB OVC040 
     TEMPO 1907/1909 4SM SHRA OVC008 
     FM190900 15010KT 5SM -SHRA VCTS OVC007CB 
     FM191600 36015G25KT 4SM -RA BR OVC006 
     FM192300 35022G35KT 3SM -SN BR OVC007 
     FM200300 35020G32KT P6SM OVC015
       
KPBX 191015Z AUTO 02005KT 10SM SCT120 03/03 A2992 RMK AO2 T00320032
KSME 191015Z AUTO 00000KT 10SM CLR 05/05 A2988 RMK AO2
KSME 190520Z 1906/2006 VRB06KT P6SM OVC035 
     FM191200 14008KT 4SM RA OVC030 WS020/18040KT 
     FM191500 17010KT 2SM RA OVC015 WS020/19045KT 
     FM192100 18008KT 3SM RA OVC015 
     FM200400 33012G23KT 5SM -RA BR OVC010
       
K6I2 191010Z AUTO 07007KT 9SM OVC019 04/04 A2982 RMK AO2
KBYL 191015Z AUTO 11005KT 10SM CLR 07/05 A2988 RMK AO1